sensor_id;sensor_type;location;lat;lon;timestamp;P1;durP1;ratioP1;P2;durP2;ratioP2
18340;SDS011;9296;48.084;16.352;2023-07-22T00:01:39;4.93;;;2.50;;
18340;SDS011;9296;48.084;16.352;2023-07-22T00:04:08;3.63;;;2.55;;
18340;SDS011;9296;48.084;16.352;2023-07-22T00:06:35;4.70;;;2.40;;
18340;SDS011;9296;48.084;16.352;2023-07-22T00:09:03;5.03;;;2.38;;
18340;SDS011;9296;48.084;16.352;2023-07-22T00:11:32;3.10;;;2.15;;
18340;SDS011;9296;48.084;16.352;2023-07-22T00:13:59;4.32;;;2.47;;
18340;SDS011;9296;48.084;16.352;2023-07-22T00:16:26;5.40;;;2.60;;
18340;SDS011;9296;48.084;16.352;2023-07-22T00:18:54;3.97;;;2.83;;
18340;SDS011;9296;48.084;16.352;2023-07-22T00:21:23;4.60;;;2.40;;
18340;SDS011;9296;48.084;16.352;2023-07-22T00:23:50;6.60;;;2.90;;
18340;SDS011;9296;48.084;16.352;2023-07-22T00:26:17;3.33;;;2.58;;
18340;SDS011;9296;48.084;16.352;2023-07-22T00:28:44;4.60;;;2.60;;
18340;SDS011;9296;48.084;16.352;2023-07-22T00:31:11;3.20;;;2.50;;
18340;SDS011;9296;48.084;16.352;2023-07-22T00:33:39;4.30;;;2.78;;
18340;SDS011;9296;48.084;16.352;2023-07-22T00:36:06;5.22;;;2.95;;
18340;SDS011;9296;48.084;16.352;2023-07-22T00:38:35;3.55;;;2.63;;
18340;SDS011;9296;48.084;16.352;2023-07-22T00:41:02;6.65;;;2.90;;
18340;SDS011;9296;48.084;16.352;2023-07-22T00:43:31;5.50;;;2.92;;
18340;SDS011;9296;48.084;16.352;2023-07-22T00:45:58;4.75;;;2.60;;
18340;SDS011;9296;48.084;16.352;2023-07-22T00:48:25;5.00;;;2.60;;
18340;SDS011;9296;48.084;16.352;2023-07-22T00:50:54;5.32;;;2.83;;
18340;SDS011;9296;48.084;16.352;2023-07-22T00:53:21;4.57;;;3.05;;
18340;SDS011;9296;48.084;16.352;2023-07-22T00:55:50;5.45;;;2.60;;
18340;SDS011;9296;48.084;16.352;2023-07-22T00:58:17;3.90;;;2.60;;
18340;SDS011;9296;48.084;16.352;2023-07-22T01:00:44;5.50;;;3.10;;
18340;SDS011;9296;48.084;16.352;2023-07-22T01:03:11;4.20;;;2.90;;
18340;SDS011;9296;48.084;16.352;2023-07-22T01:05:39;4.10;;;2.83;;
18340;SDS011;9296;48.084;16.352;2023-07-22T01:08:07;5.35;;;2.83;;
18340;SDS011;9296;48.084;16.352;2023-07-22T01:10:34;4.47;;;2.95;;
18340;SDS011;9296;48.084;16.352;2023-07-22T01:13:03;3.50;;;2.80;;
18340;SDS011;9296;48.084;16.352;2023-07-22T01:15:30;4.93;;;2.88;;
18340;SDS011;9296;48.084;16.352;2023-07-22T01:17:57;4.85;;;3.20;;
18340;SDS011;9296;48.084;16.352;2023-07-22T01:20:26;4.18;;;3.00;;
18340;SDS011;9296;48.084;16.352;2023-07-22T01:22:56;4.38;;;3.00;;
18340;SDS011;9296;48.084;16.352;2023-07-22T01:25:23;12.52;;;3.10;;
18340;SDS011;9296;48.084;16.352;2023-07-22T01:27:50;4.85;;;3.00;;
18340;SDS011;9296;48.084;16.352;2023-07-22T01:30:17;5.20;;;3.03;;
18340;SDS011;9296;48.084;16.352;2023-07-22T01:32:46;5.85;;;3.00;;
18340;SDS011;9296;48.084;16.352;2023-07-22T01:35:15;4.45;;;3.05;;
18340;SDS011;9296;48.084;16.352;2023-07-22T01:37:43;3.80;;;2.97;;
18340;SDS011;9296;48.084;16.352;2023-07-22T01:40:12;4.30;;;3.05;;
18340;SDS011;9296;48.084;16.352;2023-07-22T01:42:40;5.15;;;3.00;;
18340;SDS011;9296;48.084;16.352;2023-07-22T01:45:07;6.13;;;3.38;;
18340;SDS011;9296;48.084;16.352;2023-07-22T01:47:35;6.45;;;3.05;;
18340;SDS011;9296;48.084;16.352;2023-07-22T01:50:03;4.15;;;3.30;;
18340;SDS011;9296;48.084;16.352;2023-07-22T01:52:31;7.57;;;3.50;;
18340;SDS011;9296;48.084;16.352;2023-07-22T01:54:59;4.78;;;2.88;;
18340;SDS011;9296;48.084;16.352;2023-07-22T01:57:27;8.05;;;3.40;;
18340;SDS011;9296;48.084;16.352;2023-07-22T01:59:54;4.95;;;3.10;;
18340;SDS011;9296;48.084;16.352;2023-07-22T02:02:22;4.20;;;3.20;;
18340;SDS011;9296;48.084;16.352;2023-07-22T02:04:50;4.03;;;3.15;;
18340;SDS011;9296;48.084;16.352;2023-07-22T02:07:17;7.00;;;2.97;;
18340;SDS011;9296;48.084;16.352;2023-07-22T02:09:54;5.03;;;3.20;;
18340;SDS011;9296;48.084;16.352;2023-07-22T02:12:21;4.90;;;3.40;;
18340;SDS011;9296;48.084;16.352;2023-07-22T02:14:50;5.20;;;2.95;;
18340;SDS011;9296;48.084;16.352;2023-07-22T02:17:17;3.85;;;3.03;;
18340;SDS011;9296;48.084;16.352;2023-07-22T02:19:45;7.60;;;3.53;;
18340;SDS011;9296;48.084;16.352;2023-07-22T02:22:12;5.47;;;3.03;;
18340;SDS011;9296;48.084;16.352;2023-07-22T02:24:39;4.70;;;2.88;;
18340;SDS011;9296;48.084;16.352;2023-07-22T02:27:07;6.05;;;3.35;;
18340;SDS011;9296;48.084;16.352;2023-07-22T02:29:34;4.25;;;3.20;;
18340;SDS011;9296;48.084;16.352;2023-07-22T02:32:04;5.90;;;3.28;;
18340;SDS011;9296;48.084;16.352;2023-07-22T02:34:31;6.13;;;3.40;;
18340;SDS011;9296;48.084;16.352;2023-07-22T02:36:58;4.63;;;3.15;;
18340;SDS011;9296;48.084;16.352;2023-07-22T02:39:25;7.72;;;3.47;;
18340;SDS011;9296;48.084;16.352;2023-07-22T02:41:53;4.13;;;3.15;;
18340;SDS011;9296;48.084;16.352;2023-07-22T02:44:20;4.13;;;3.30;;
18340;SDS011;9296;48.084;16.352;2023-07-22T02:46:47;6.72;;;3.45;;
18340;SDS011;9296;48.084;16.352;2023-07-22T02:49:16;5.95;;;3.83;;
18340;SDS011;9296;48.084;16.352;2023-07-22T02:51:43;6.55;;;3.53;;
18340;SDS011;9296;48.084;16.352;2023-07-22T02:54:10;5.47;;;3.30;;
18340;SDS011;9296;48.084;16.352;2023-07-22T02:56:39;6.55;;;3.35;;
18340;SDS011;9296;48.084;16.352;2023-07-22T02:59:06;5.20;;;3.30;;
18340;SDS011;9296;48.084;16.352;2023-07-22T03:01:34;4.53;;;3.50;;
18340;SDS011;9296;48.084;16.352;2023-07-22T03:04:01;5.40;;;3.40;;
18340;SDS011;9296;48.084;16.352;2023-07-22T03:06:30;3.65;;;2.95;;
18340;SDS011;9296;48.084;16.352;2023-07-22T03:08:57;5.25;;;3.25;;
18340;SDS011;9296;48.084;16.352;2023-07-22T03:11:24;5.50;;;3.20;;
18340;SDS011;9296;48.084;16.352;2023-07-22T03:13:52;3.65;;;3.00;;
18340;SDS011;9296;48.084;16.352;2023-07-22T03:16:19;8.30;;;3.45;;
18340;SDS011;9296;48.084;16.352;2023-07-22T03:18:46;5.00;;;3.30;;
18340;SDS011;9296;48.084;16.352;2023-07-22T03:21:14;6.72;;;3.90;;
18340;SDS011;9296;48.084;16.352;2023-07-22T03:23:42;5.45;;;3.20;;
18340;SDS011;9296;48.084;16.352;2023-07-22T03:26:10;5.28;;;3.03;;
18340;SDS011;9296;48.084;16.352;2023-07-22T03:28:37;4.40;;;3.38;;
18340;SDS011;9296;48.084;16.352;2023-07-22T03:31:06;4.43;;;3.22;;
18340;SDS011;9296;48.084;16.352;2023-07-22T03:33:34;5.20;;;2.97;;
18340;SDS011;9296;48.084;16.352;2023-07-22T03:36:01;4.82;;;3.22;;
18340;SDS011;9296;48.084;16.352;2023-07-22T03:38:28;4.65;;;3.10;;
18340;SDS011;9296;48.084;16.352;2023-07-22T03:44:01;3.55;;;2.88;;
18340;SDS011;9296;48.084;16.352;2023-07-22T03:46:28;6.10;;;3.22;;
18340;SDS011;9296;48.084;16.352;2023-07-22T03:48:56;5.45;;;2.80;;
18340;SDS011;9296;48.084;16.352;2023-07-22T03:51:23;4.03;;;2.90;;
18340;SDS011;9296;48.084;16.352;2023-07-22T03:53:50;3.60;;;2.80;;
18340;SDS011;9296;48.084;16.352;2023-07-22T03:56:17;3.17;;;2.60;;
18340;SDS011;9296;48.084;16.352;2023-07-22T03:58:44;5.28;;;2.90;;
18340;SDS011;9296;48.084;16.352;2023-07-22T04:01:13;4.70;;;2.65;;
18340;SDS011;9296;48.084;16.352;2023-07-22T04:03:40;4.20;;;3.08;;
18340;SDS011;9296;48.084;16.352;2023-07-22T04:06:07;3.85;;;2.90;;
18340;SDS011;9296;48.084;16.352;2023-07-22T04:08:34;5.35;;;2.95;;
18340;SDS011;9296;48.084;16.352;2023-07-22T04:11:02;7.63;;;2.85;;
18340;SDS011;9296;48.084;16.352;2023-07-22T04:13:29;3.60;;;3.00;;
18340;SDS011;9296;48.084;16.352;2023-07-22T04:15:56;3.53;;;2.80;;
18340;SDS011;9296;48.084;16.352;2023-07-22T04:18:25;3.75;;;2.60;;
18340;SDS011;9296;48.084;16.352;2023-07-22T04:20:58;4.85;;;2.63;;
18340;SDS011;9296;48.084;16.352;2023-07-22T04:23:25;4.10;;;2.80;;
18340;SDS011;9296;48.084;16.352;2023-07-22T04:25:52;3.20;;;2.70;;
18340;SDS011;9296;48.084;16.352;2023-07-22T04:28:20;4.60;;;2.40;;
18340;SDS011;9296;48.084;16.352;2023-07-22T04:30:54;3.08;;;2.28;;
18340;SDS011;9296;48.084;16.352;2023-07-22T04:33:21;4.47;;;2.80;;
18340;SDS011;9296;48.084;16.352;2023-07-22T04:35:50;3.42;;;2.70;;
18340;SDS011;9296;48.084;16.352;2023-07-22T04:38:20;3.63;;;2.45;;
18340;SDS011;9296;48.084;16.352;2023-07-22T04:40:47;3.22;;;2.35;;
18340;SDS011;9296;48.084;16.352;2023-07-22T04:43:14;5.22;;;2.70;;
18340;SDS011;9296;48.084;16.352;2023-07-22T04:45:43;5.93;;;2.63;;
18340;SDS011;9296;48.084;16.352;2023-07-22T04:48:13;4.03;;;2.10;;
18340;SDS011;9296;48.084;16.352;2023-07-22T04:50:41;2.70;;;2.30;;
18340;SDS011;9296;48.084;16.352;2023-07-22T04:53:11;2.55;;;2.20;;
18340;SDS011;9296;48.084;16.352;2023-07-22T04:55:39;3.28;;;2.22;;
18340;SDS011;9296;48.084;16.352;2023-07-22T04:58:06;3.97;;;2.20;;
18340;SDS011;9296;48.084;16.352;2023-07-22T05:00:34;3.80;;;2.40;;
18340;SDS011;9296;48.084;16.352;2023-07-22T05:03:02;3.85;;;1.98;;
18340;SDS011;9296;48.084;16.352;2023-07-22T05:05:29;4.50;;;2.05;;
18340;SDS011;9296;48.084;16.352;2023-07-22T05:07:57;4.00;;;2.10;;
18340;SDS011;9296;48.084;16.352;2023-07-22T05:10:25;3.90;;;2.13;;
18340;SDS011;9296;48.084;16.352;2023-07-22T05:12:54;3.38;;;2.25;;
18340;SDS011;9296;48.084;16.352;2023-07-22T05:15:22;5.47;;;2.30;;
18340;SDS011;9296;48.084;16.352;2023-07-22T05:17:49;3.70;;;2.30;;
18340;SDS011;9296;48.084;16.352;2023-07-22T05:20:16;2.72;;;1.98;;
18340;SDS011;9296;48.084;16.352;2023-07-22T05:22:43;6.38;;;2.08;;
18340;SDS011;9296;48.084;16.352;2023-07-22T05:25:11;4.00;;;2.28;;
18340;SDS011;9296;48.084;16.352;2023-07-22T05:27:40;3.72;;;2.20;;
18340;SDS011;9296;48.084;16.352;2023-07-22T05:30:07;4.22;;;2.55;;
18340;SDS011;9296;48.084;16.352;2023-07-22T05:32:35;4.28;;;2.08;;
18340;SDS011;9296;48.084;16.352;2023-07-22T05:35:02;4.32;;;2.35;;
18340;SDS011;9296;48.084;16.352;2023-07-22T05:37:30;4.70;;;2.00;;
18340;SDS011;9296;48.084;16.352;2023-07-22T05:39:57;3.35;;;2.20;;
18340;SDS011;9296;48.084;16.352;2023-07-22T05:42:24;3.20;;;2.53;;
18340;SDS011;9296;48.084;16.352;2023-07-22T05:44:55;2.78;;;2.30;;
18340;SDS011;9296;48.084;16.352;2023-07-22T05:47:22;2.80;;;2.10;;
18340;SDS011;9296;48.084;16.352;2023-07-22T05:49:49;3.53;;;2.20;;
18340;SDS011;9296;48.084;16.352;2023-07-22T05:52:16;3.35;;;2.50;;
18340;SDS011;9296;48.084;16.352;2023-07-22T05:54:44;3.17;;;2.30;;
18340;SDS011;9296;48.084;16.352;2023-07-22T05:57:11;4.72;;;2.58;;
18340;SDS011;9296;48.084;16.352;2023-07-22T05:59:38;4.35;;;2.20;;
18340;SDS011;9296;48.084;16.352;2023-07-22T06:02:07;3.35;;;2.47;;
18340;SDS011;9296;48.084;16.352;2023-07-22T06:04:35;5.22;;;2.38;;
18340;SDS011;9296;48.084;16.352;2023-07-22T06:07:04;2.40;;;2.20;;
18340;SDS011;9296;48.084;16.352;2023-07-22T06:09:31;3.08;;;2.10;;
18340;SDS011;9296;48.084;16.352;2023-07-22T06:11:58;2.63;;;2.00;;
18340;SDS011;9296;48.084;16.352;2023-07-22T06:14:25;2.47;;;1.88;;
18340;SDS011;9296;48.084;16.352;2023-07-22T06:16:52;4.65;;;2.08;;
18340;SDS011;9296;48.084;16.352;2023-07-22T06:19:21;3.75;;;2.00;;
18340;SDS011;9296;48.084;16.352;2023-07-22T06:21:49;3.67;;;2.35;;
18340;SDS011;9296;48.084;16.352;2023-07-22T06:24:16;2.33;;;1.85;;
18340;SDS011;9296;48.084;16.352;2023-07-22T06:26:43;2.50;;;2.00;;
18340;SDS011;9296;48.084;16.352;2023-07-22T06:29:10;2.78;;;2.20;;
18340;SDS011;9296;48.084;16.352;2023-07-22T06:31:36;2.72;;;1.98;;
18340;SDS011;9296;48.084;16.352;2023-07-22T06:34:03;2.30;;;2.10;;
18340;SDS011;9296;48.084;16.352;2023-07-22T06:36:31;3.13;;;1.92;;
18340;SDS011;9296;48.084;16.352;2023-07-22T06:38:59;2.75;;;2.17;;
18340;SDS011;9296;48.084;16.352;2023-07-22T06:41:26;2.97;;;2.00;;
18340;SDS011;9296;48.084;16.352;2023-07-22T06:43:53;3.65;;;2.20;;
18340;SDS011;9296;48.084;16.352;2023-07-22T06:46:20;3.00;;;1.92;;
18340;SDS011;9296;48.084;16.352;2023-07-22T06:48:47;3.33;;;1.83;;
18340;SDS011;9296;48.084;16.352;2023-07-22T06:51:14;2.78;;;1.90;;
18340;SDS011;9296;48.084;16.352;2023-07-22T06:53:43;3.67;;;2.25;;
18340;SDS011;9296;48.084;16.352;2023-07-22T06:59:33;2.67;;;1.75;;
18340;SDS011;9296;48.084;16.352;2023-07-22T07:02:00;3.85;;;1.90;;
18340;SDS011;9296;48.084;16.352;2023-07-22T07:04:27;3.30;;;1.90;;
18340;SDS011;9296;48.084;16.352;2023-07-22T07:06:54;2.75;;;1.98;;
18340;SDS011;9296;48.084;16.352;2023-07-22T07:09:23;2.55;;;1.70;;
18340;SDS011;9296;48.084;16.352;2023-07-22T07:11:50;3.17;;;2.10;;
18340;SDS011;9296;48.084;16.352;2023-07-22T07:14:17;2.20;;;1.77;;
18340;SDS011;9296;48.084;16.352;2023-07-22T07:16:45;2.65;;;2.20;;
18340;SDS011;9296;48.084;16.352;2023-07-22T07:19:12;2.40;;;1.80;;
18340;SDS011;9296;48.084;16.352;2023-07-22T07:21:40;2.47;;;1.83;;
18340;SDS011;9296;48.084;16.352;2023-07-22T07:24:07;1.90;;;1.67;;
18340;SDS011;9296;48.084;16.352;2023-07-22T07:26:53;3.30;;;2.13;;
18340;SDS011;9296;48.084;16.352;2023-07-22T07:29:21;2.38;;;1.60;;
18340;SDS011;9296;48.084;16.352;2023-07-22T07:31:48;5.05;;;2.10;;
18340;SDS011;9296;48.084;16.352;2023-07-22T07:34:15;2.88;;;2.00;;
18340;SDS011;9296;48.084;16.352;2023-07-22T07:36:42;3.10;;;1.92;;
18340;SDS011;9296;48.084;16.352;2023-07-22T07:39:09;2.10;;;1.80;;
18340;SDS011;9296;48.084;16.352;2023-07-22T07:41:36;3.08;;;1.65;;
18340;SDS011;9296;48.084;16.352;2023-07-22T07:44:06;2.78;;;1.60;;
18340;SDS011;9296;48.084;16.352;2023-07-22T07:46:33;3.10;;;1.50;;
18340;SDS011;9296;48.084;16.352;2023-07-22T07:49:00;2.90;;;1.60;;
18340;SDS011;9296;48.084;16.352;2023-07-22T07:51:28;2.80;;;1.70;;
18340;SDS011;9296;48.084;16.352;2023-07-22T07:53:56;2.70;;;1.70;;
18340;SDS011;9296;48.084;16.352;2023-07-22T07:56:24;2.17;;;1.60;;
18340;SDS011;9296;48.084;16.352;2023-07-22T07:58:52;2.10;;;1.70;;
18340;SDS011;9296;48.084;16.352;2023-07-22T08:01:21;4.05;;;1.73;;
18340;SDS011;9296;48.084;16.352;2023-07-22T08:03:48;1.95;;;1.75;;
18340;SDS011;9296;48.084;16.352;2023-07-22T08:06:15;2.20;;;1.67;;
18340;SDS011;9296;48.084;16.352;2023-07-22T08:08:43;1.92;;;1.60;;
18340;SDS011;9296;48.084;16.352;2023-07-22T08:11:11;4.20;;;1.92;;
18340;SDS011;9296;48.084;16.352;2023-07-22T08:13:39;2.35;;;1.90;;
18340;SDS011;9296;48.084;16.352;2023-07-22T08:16:07;4.03;;;2.00;;
18340;SDS011;9296;48.084;16.352;2023-07-22T08:18:36;3.15;;;1.95;;
18340;SDS011;9296;48.084;16.352;2023-07-22T08:21:04;4.28;;;2.00;;
18340;SDS011;9296;48.084;16.352;2023-07-22T08:23:32;2.97;;;1.70;;
18340;SDS011;9296;48.084;16.352;2023-07-22T08:26:00;1.95;;;1.70;;
18340;SDS011;9296;48.084;16.352;2023-07-22T08:28:29;4.28;;;2.03;;
18340;SDS011;9296;48.084;16.352;2023-07-22T08:30:56;1.98;;;1.77;;
18340;SDS011;9296;48.084;16.352;2023-07-22T08:33:25;2.28;;;2.08;;
18340;SDS011;9296;48.084;16.352;2023-07-22T08:35:54;2.10;;;1.90;;
18340;SDS011;9296;48.084;16.352;2023-07-22T08:38:21;2.13;;;1.83;;
18340;SDS011;9296;48.084;16.352;2023-07-22T08:44:10;2.40;;;1.80;;
18340;SDS011;9296;48.084;16.352;2023-07-22T08:46:37;2.60;;;1.90;;
18340;SDS011;9296;48.084;16.352;2023-07-22T08:49:06;2.35;;;1.92;;
18340;SDS011;9296;48.084;16.352;2023-07-22T08:51:36;2.25;;;1.90;;
18340;SDS011;9296;48.084;16.352;2023-07-22T08:54:03;2.55;;;1.90;;
18340;SDS011;9296;48.084;16.352;2023-07-22T08:56:49;2.05;;;1.80;;
18340;SDS011;9296;48.084;16.352;2023-07-22T08:59:16;1.70;;;1.60;;
18340;SDS011;9296;48.084;16.352;2023-07-22T09:01:44;3.97;;;1.90;;
18340;SDS011;9296;48.084;16.352;2023-07-22T09:04:11;2.25;;;1.95;;
18340;SDS011;9296;48.084;16.352;2023-07-22T09:06:40;2.90;;;1.75;;
18340;SDS011;9296;48.084;16.352;2023-07-22T09:09:08;2.03;;;1.83;;
18340;SDS011;9296;48.084;16.352;2023-07-22T09:11:37;2.50;;;1.80;;
18340;SDS011;9296;48.084;16.352;2023-07-22T09:14:04;2.95;;;2.20;;
18340;SDS011;9296;48.084;16.352;2023-07-22T09:16:32;2.65;;;1.85;;
18340;SDS011;9296;48.084;16.352;2023-07-22T09:18:59;2.90;;;1.75;;
18340;SDS011;9296;48.084;16.352;2023-07-22T09:21:26;3.28;;;1.88;;
18340;SDS011;9296;48.084;16.352;2023-07-22T09:23:55;3.63;;;2.05;;
18340;SDS011;9296;48.084;16.352;2023-07-22T09:32:34;2.33;;;1.85;;
18340;SDS011;9296;48.084;16.352;2023-07-22T09:35:01;2.47;;;2.10;;
18340;SDS011;9296;48.084;16.352;2023-07-22T09:37:35;3.60;;;2.00;;
18340;SDS011;9296;48.084;16.352;2023-07-22T09:40:06;3.25;;;2.00;;
18340;SDS011;9296;48.084;16.352;2023-07-22T09:43:00;3.05;;;1.95;;
18340;SDS011;9296;48.084;16.352;2023-07-22T09:45:28;2.05;;;1.80;;
18340;SDS011;9296;48.084;16.352;2023-07-22T09:47:56;2.00;;;1.80;;
18340;SDS011;9296;48.084;16.352;2023-07-22T09:50:23;2.13;;;1.75;;
18340;SDS011;9296;48.084;16.352;2023-07-22T09:52:52;2.08;;;1.83;;
18340;SDS011;9296;48.084;16.352;2023-07-22T09:55:21;2.13;;;1.90;;
18340;SDS011;9296;48.084;16.352;2023-07-22T09:57:50;3.33;;;1.98;;
18340;SDS011;9296;48.084;16.352;2023-07-22T10:00:17;2.80;;;1.90;;
18340;SDS011;9296;48.084;16.352;2023-07-22T10:02:46;1.90;;;1.65;;
18340;SDS011;9296;48.084;16.352;2023-07-22T10:05:15;2.20;;;1.60;;
18340;SDS011;9296;48.084;16.352;2023-07-22T10:07:43;2.15;;;1.85;;
18340;SDS011;9296;48.084;16.352;2023-07-22T10:10:11;2.58;;;1.80;;
18340;SDS011;9296;48.084;16.352;2023-07-22T10:12:41;2.10;;;1.70;;
18340;SDS011;9296;48.084;16.352;2023-07-22T10:15:09;2.42;;;1.77;;
18340;SDS011;9296;48.084;16.352;2023-07-22T10:17:36;2.40;;;1.58;;
18340;SDS011;9296;48.084;16.352;2023-07-22T10:20:04;2.42;;;1.63;;
18340;SDS011;9296;48.084;16.352;2023-07-22T10:22:33;1.60;;;1.50;;
18340;SDS011;9296;48.084;16.352;2023-07-22T10:25:01;1.73;;;1.50;;
18340;SDS011;9296;48.084;16.352;2023-07-22T10:27:31;2.10;;;1.55;;
18340;SDS011;9296;48.084;16.352;2023-07-22T10:29:59;2.22;;;1.30;;
18340;SDS011;9296;48.084;16.352;2023-07-22T10:32:31;2.78;;;1.60;;
18340;SDS011;9296;48.084;16.352;2023-07-22T10:34:58;1.92;;;1.50;;
18340;SDS011;9296;48.084;16.352;2023-07-22T10:37:28;1.80;;;1.60;;
18340;SDS011;9296;48.084;16.352;2023-07-22T10:39:58;1.60;;;1.50;;
18340;SDS011;9296;48.084;16.352;2023-07-22T10:42:50;1.80;;;1.52;;
18340;SDS011;9296;48.084;16.352;2023-07-22T10:45:24;2.00;;;1.65;;
18340;SDS011;9296;48.084;16.352;2023-07-22T10:47:59;1.90;;;1.60;;
18340;SDS011;9296;48.084;16.352;2023-07-22T10:50:37;1.70;;;1.50;;
18340;SDS011;9296;48.084;16.352;2023-07-22T10:53:05;1.70;;;1.60;;
18340;SDS011;9296;48.084;16.352;2023-07-22T10:55:32;2.33;;;1.70;;
18340;SDS011;9296;48.084;16.352;2023-07-22T10:58:18;1.88;;;1.45;;
18340;SDS011;9296;48.084;16.352;2023-07-22T11:00:48;1.70;;;1.60;;
18340;SDS011;9296;48.084;16.352;2023-07-22T11:03:15;2.60;;;1.65;;
18340;SDS011;9296;48.084;16.352;2023-07-22T11:05:52;2.38;;;1.50;;
18340;SDS011;9296;48.084;16.352;2023-07-22T11:08:36;1.83;;;1.58;;
18340;SDS011;9296;48.084;16.352;2023-07-22T11:11:03;1.70;;;1.60;;
18340;SDS011;9296;48.084;16.352;2023-07-22T11:13:34;1.73;;;1.55;;
18340;SDS011;9296;48.084;16.352;2023-07-22T11:16:03;1.85;;;1.60;;
18340;SDS011;9296;48.084;16.352;2023-07-22T11:18:37;1.70;;;1.60;;
18340;SDS011;9296;48.084;16.352;2023-07-22T11:21:09;2.88;;;1.50;;
18340;SDS011;9296;48.084;16.352;2023-07-22T11:23:36;2.55;;;1.63;;
18340;SDS011;9296;48.084;16.352;2023-07-22T11:29:22;3.33;;;1.80;;
18340;SDS011;9296;48.084;16.352;2023-07-22T11:31:51;1.70;;;1.60;;
18340;SDS011;9296;48.084;16.352;2023-07-22T11:34:19;2.45;;;1.67;;
18340;SDS011;9296;48.084;16.352;2023-07-22T11:36:46;1.98;;;1.70;;
18340;SDS011;9296;48.084;16.352;2023-07-22T11:39:14;2.15;;;1.83;;
18340;SDS011;9296;48.084;16.352;2023-07-22T11:47:51;1.98;;;1.50;;
18340;SDS011;9296;48.084;16.352;2023-07-22T11:50:18;1.63;;;1.52;;
18340;SDS011;9296;48.084;16.352;2023-07-22T11:52:49;1.50;;;1.38;;
18340;SDS011;9296;48.084;16.352;2023-07-22T11:55:16;1.83;;;1.58;;
18340;SDS011;9296;48.084;16.352;2023-07-22T11:57:51;1.65;;;1.33;;
18340;SDS011;9296;48.084;16.352;2023-07-22T12:00:19;3.22;;;1.70;;
18340;SDS011;9296;48.084;16.352;2023-07-22T12:02:46;2.17;;;1.60;;
18340;SDS011;9296;48.084;16.352;2023-07-22T12:05:21;1.70;;;1.20;;
18340;SDS011;9296;48.084;16.352;2023-07-22T12:07:48;1.75;;;1.42;;
18340;SDS011;9296;48.084;16.352;2023-07-22T12:10:15;1.50;;;1.38;;
18340;SDS011;9296;48.084;16.352;2023-07-22T12:12:44;1.92;;;1.30;;
18340;SDS011;9296;48.084;16.352;2023-07-22T12:15:14;1.60;;;1.25;;
18340;SDS011;9296;48.084;16.352;2023-07-22T12:17:48;1.80;;;1.50;;
18340;SDS011;9296;48.084;16.352;2023-07-22T12:20:15;2.05;;;1.40;;
18340;SDS011;9296;48.084;16.352;2023-07-22T12:22:44;3.25;;;1.67;;
18340;SDS011;9296;48.084;16.352;2023-07-22T12:25:11;1.48;;;1.38;;
18340;SDS011;9296;48.084;16.352;2023-07-22T12:30:25;2.00;;;1.65;;
18340;SDS011;9296;48.084;16.352;2023-07-22T12:32:53;2.22;;;1.73;;
18340;SDS011;9296;48.084;16.352;2023-07-22T12:35:20;1.85;;;1.52;;
18340;SDS011;9296;48.084;16.352;2023-07-22T12:37:48;1.65;;;1.50;;
18340;SDS011;9296;48.084;16.352;2023-07-22T12:40:16;1.77;;;1.52;;
18340;SDS011;9296;48.084;16.352;2023-07-22T12:45:47;1.67;;;1.40;;
18340;SDS011;9296;48.084;16.352;2023-07-22T12:48:14;1.63;;;1.30;;
18340;SDS011;9296;48.084;16.352;2023-07-22T12:50:42;1.92;;;1.35;;
18340;SDS011;9296;48.084;16.352;2023-07-22T12:53:10;1.70;;;1.45;;
18340;SDS011;9296;48.084;16.352;2023-07-22T12:55:38;1.73;;;1.60;;
18340;SDS011;9296;48.084;16.352;2023-07-22T12:58:23;1.65;;;1.23;;
18340;SDS011;9296;48.084;16.352;2023-07-22T13:00:50;1.70;;;1.40;;
18340;SDS011;9296;48.084;16.352;2023-07-22T13:03:17;1.90;;;1.60;;
18340;SDS011;9296;48.084;16.352;2023-07-22T13:05:44;3.90;;;1.90;;
18340;SDS011;9296;48.084;16.352;2023-07-22T13:08:13;1.65;;;1.55;;
18340;SDS011;9296;48.084;16.352;2023-07-22T13:10:40;1.90;;;1.63;;
18340;SDS011;9296;48.084;16.352;2023-07-22T13:13:09;1.90;;;1.70;;
18340;SDS011;9296;48.084;16.352;2023-07-22T13:15:37;3.13;;;2.10;;
18340;SDS011;9296;48.084;16.352;2023-07-22T13:18:04;2.47;;;2.00;;
18340;SDS011;9296;48.084;16.352;2023-07-22T13:20:31;3.05;;;1.75;;
18340;SDS011;9296;48.084;16.352;2023-07-22T13:22:58;2.03;;;1.70;;
18340;SDS011;9296;48.084;16.352;2023-07-22T13:25:27;2.25;;;2.03;;
18340;SDS011;9296;48.084;16.352;2023-07-22T13:27:55;2.80;;;2.50;;
18340;SDS011;9296;48.084;16.352;2023-07-22T13:30:22;4.13;;;2.55;;
18340;SDS011;9296;48.084;16.352;2023-07-22T13:32:49;3.08;;;2.03;;
18340;SDS011;9296;48.084;16.352;2023-07-22T13:35:17;3.15;;;2.15;;
18340;SDS011;9296;48.084;16.352;2023-07-22T13:37:45;2.97;;;1.98;;
18340;SDS011;9296;48.084;16.352;2023-07-22T13:40:12;2.53;;;2.03;;
18340;SDS011;9296;48.084;16.352;2023-07-22T13:42:59;3.10;;;2.47;;
18340;SDS011;9296;48.084;16.352;2023-07-22T13:45:26;2.47;;;1.88;;
18340;SDS011;9296;48.084;16.352;2023-07-22T13:47:54;2.33;;;2.00;;
18340;SDS011;9296;48.084;16.352;2023-07-22T13:50:21;2.65;;;2.05;;
18340;SDS011;9296;48.084;16.352;2023-07-22T13:52:48;3.38;;;2.00;;
18340;SDS011;9296;48.084;16.352;2023-07-22T13:55:15;3.83;;;2.13;;
18340;SDS011;9296;48.084;16.352;2023-07-22T14:00:47;3.33;;;2.90;;
18340;SDS011;9296;48.084;16.352;2023-07-22T14:03:15;3.00;;;2.50;;
18340;SDS011;9296;48.084;16.352;2023-07-22T14:05:42;4.20;;;2.63;;
18340;SDS011;9296;48.084;16.352;2023-07-22T14:08:09;3.28;;;2.60;;
18340;SDS011;9296;48.084;16.352;2023-07-22T14:10:36;2.90;;;2.40;;
18340;SDS011;9296;48.084;16.352;2023-07-22T14:13:03;3.92;;;2.80;;
18340;SDS011;9296;48.084;16.352;2023-07-22T14:15:30;3.25;;;2.53;;
18340;SDS011;9296;48.084;16.352;2023-07-22T14:17:59;3.58;;;2.72;;
18340;SDS011;9296;48.084;16.352;2023-07-22T14:20:26;3.55;;;2.70;;
18340;SDS011;9296;48.084;16.352;2023-07-22T14:22:55;3.13;;;2.50;;
18340;SDS011;9296;48.084;16.352;2023-07-22T14:25:22;3.08;;;2.63;;
18340;SDS011;9296;48.084;16.352;2023-07-22T14:30:54;3.47;;;3.08;;
18340;SDS011;9296;48.084;16.352;2023-07-22T14:33:22;3.65;;;2.70;;
18340;SDS011;9296;48.084;16.352;2023-07-22T14:35:50;3.55;;;2.88;;
18340;SDS011;9296;48.084;16.352;2023-07-22T14:38:17;3.10;;;2.60;;
18340;SDS011;9296;48.084;16.352;2023-07-22T14:40:44;3.80;;;2.65;;
18340;SDS011;9296;48.084;16.352;2023-07-22T14:43:29;3.47;;;2.70;;
18340;SDS011;9296;48.084;16.352;2023-07-22T14:45:57;3.95;;;2.70;;
18340;SDS011;9296;48.084;16.352;2023-07-22T14:48:25;3.75;;;2.75;;
18340;SDS011;9296;48.084;16.352;2023-07-22T14:50:52;4.28;;;2.80;;
18340;SDS011;9296;48.084;16.352;2023-07-22T14:53:19;4.47;;;2.80;;
18340;SDS011;9296;48.084;16.352;2023-07-22T14:55:47;3.95;;;3.20;;
18340;SDS011;9296;48.084;16.352;2023-07-22T15:01:17;4.57;;;2.72;;
18340;SDS011;9296;48.084;16.352;2023-07-22T15:03:46;3.65;;;3.20;;
18340;SDS011;9296;48.084;16.352;2023-07-22T15:06:13;4.57;;;3.08;;
18340;SDS011;9296;48.084;16.352;2023-07-22T15:08:40;3.65;;;3.10;;
18340;SDS011;9296;48.084;16.352;2023-07-22T15:11:08;4.03;;;3.22;;
18340;SDS011;9296;48.084;16.352;2023-07-22T15:16:34;3.83;;;2.95;;
18340;SDS011;9296;48.084;16.352;2023-07-22T15:19:03;3.47;;;2.92;;
18340;SDS011;9296;48.084;16.352;2023-07-22T15:21:30;3.80;;;3.30;;
18340;SDS011;9296;48.084;16.352;2023-07-22T15:23:57;4.22;;;3.30;;
18340;SDS011;9296;48.084;16.352;2023-07-22T15:26:24;4.10;;;3.10;;
18340;SDS011;9296;48.084;16.352;2023-07-22T15:28:52;3.67;;;2.88;;
18340;SDS011;9296;48.084;16.352;2023-07-22T15:31:19;3.60;;;2.83;;
18340;SDS011;9296;48.084;16.352;2023-07-22T15:33:47;4.40;;;3.45;;
18340;SDS011;9296;48.084;16.352;2023-07-22T15:36:16;4.55;;;3.15;;
18340;SDS011;9296;48.084;16.352;2023-07-22T15:38:43;5.13;;;3.03;;